createdAt,value
2023-11-13T00:01:22.292Z,86.44
2023-11-13T00:03:49.627Z,86.32
2023-11-13T00:06:16.345Z,86.46
2023-11-13T00:08:43.964Z,86.71
2023-11-13T00:11:10.802Z,86.53
2023-11-13T00:13:37.730Z,86.60
2023-11-13T00:16:04.885Z,86.72
2023-11-13T00:18:32.987Z,86.63
2023-11-13T00:21:00.303Z,86.98
2023-11-13T00:23:28.712Z,86.96
2023-11-13T00:25:55.299Z,87.18
2023-11-13T00:28:22.123Z,87.18
2023-11-13T00:30:48.832Z,87.37
2023-11-13T00:33:17.297Z,87.09
2023-11-13T00:35:45.519Z,87.25
2023-11-13T00:38:12.130Z,87.09
2023-11-13T00:40:38.711Z,86.99
2023-11-13T00:43:06.031Z,86.80
2023-11-13T00:45:33.140Z,87.13
2023-11-13T00:47:59.636Z,86.71
2023-11-13T00:50:26.178Z,87.22
2023-11-13T00:52:52.715Z,87.40
2023-11-13T00:55:19.198Z,87.58
2023-11-13T00:57:45.771Z,89.53
2023-11-13T01:00:14.491Z,89.58
2023-11-13T01:02:41.069Z,90.18
2023-11-13T01:05:08.135Z,90.22
2023-11-13T01:07:34.942Z,90.78
2023-11-13T01:10:01.543Z,91.93
2023-11-13T01:12:28.266Z,92.86
2023-11-13T01:14:54.822Z,93.16
2023-11-13T01:17:21.455Z,94.69
2023-11-13T01:19:48.009Z,94.46
2023-11-13T01:22:14.777Z,95.45
2023-11-13T01:24:41.457Z,95.11
2023-11-13T01:27:07.960Z,96.26
2023-11-13T01:29:34.430Z,95.36
2023-11-13T01:32:01.988Z,96.19
2023-11-13T01:34:28.806Z,94.84
2023-11-13T01:36:55.487Z,94.67
2023-11-13T01:39:22.069Z,95.14
2023-11-13T01:41:48.598Z,94.97
2023-11-13T01:44:15.073Z,94.59
2023-11-13T01:46:42.948Z,94.50
2023-11-13T01:49:10.438Z,94.10
2023-11-13T01:51:37.036Z,94.91
2023-11-13T01:54:04.528Z,94.14
2023-11-13T01:56:32.915Z,95.04
2023-11-13T01:59:00.435Z,94.08
2023-11-13T02:01:29.895Z,94.04
2023-11-13T02:03:56.697Z,94.38
2023-11-13T02:06:26.119Z,94.50
2023-11-13T02:08:52.650Z,94.35
2023-11-13T02:11:21.064Z,93.83
2023-11-13T02:13:49.102Z,94.18
2023-11-13T02:16:15.908Z,94.21
2023-11-13T02:18:42.550Z,93.61
2023-11-13T02:21:09.849Z,93.72
2023-11-13T02:23:36.603Z,93.17
2023-11-13T02:26:14.870Z,93.01
2023-11-13T02:28:41.528Z,93.35
2023-11-13T02:31:08.038Z,93.81
2023-11-13T02:33:34.501Z,93.67
2023-11-13T02:36:01.120Z,93.21
2023-11-13T02:38:27.616Z,93.69
2023-11-13T02:40:54.127Z,92.64
2023-11-13T02:43:20.719Z,93.58
2023-11-13T02:45:47.275Z,93.91
2023-11-13T02:48:13.833Z,93.84
2023-11-13T02:50:41.293Z,93.66
2023-11-13T02:53:07.828Z,93.50
2023-11-13T02:55:34.351Z,93.44
2023-11-13T02:58:00.917Z,94.08
2023-11-13T03:00:27.415Z,93.43
2023-11-13T03:02:53.949Z,93.88
2023-11-13T03:05:20.618Z,92.96
2023-11-13T03:07:47.345Z,93.56
2023-11-13T03:10:13.949Z,93.42
2023-11-13T03:12:41.086Z,93.03
2023-11-13T03:15:08.632Z,92.53
2023-11-13T03:17:35.189Z,91.62
2023-11-13T03:20:04.229Z,91.67
2023-11-13T03:22:31.133Z,90.54
2023-11-13T03:24:57.796Z,90.65
2023-11-13T03:27:24.356Z,91.02
2023-11-13T03:29:51.874Z,89.66
2023-11-13T03:32:19.172Z,90.03
2023-11-13T03:34:46.241Z,89.90
2023-11-13T03:37:12.795Z,89.71
2023-11-13T03:39:39.287Z,89.39
2023-11-13T03:42:05.913Z,89.61
2023-11-13T03:44:32.481Z,88.91
2023-11-13T03:46:59.015Z,89.39
2023-11-13T03:49:25.633Z,89.00
2023-11-13T03:51:52.172Z,88.59
2023-11-13T03:54:18.701Z,89.28
2023-11-13T03:56:45.229Z,88.72
2023-11-13T03:59:11.693Z,89.14
2023-11-13T04:01:38.349Z,89.13
2023-11-13T04:04:05.670Z,89.04
2023-11-13T04:06:32.304Z,88.74
2023-11-13T04:08:58.853Z,89.20
2023-11-13T04:11:25.395Z,89.28
2023-11-13T04:13:51.975Z,88.92
2023-11-13T04:16:18.686Z,88.71
2023-11-13T04:18:45.257Z,89.20
2023-11-13T04:21:11.758Z,88.77
2023-11-13T04:23:38.411Z,88.33
2023-11-13T04:26:05.583Z,89.21
2023-11-13T04:28:36.371Z,88.85
2023-11-13T04:31:04.975Z,88.37
2023-11-13T04:33:31.569Z,88.43
2023-11-13T04:36:02.340Z,88.22
2023-11-13T04:38:29.033Z,88.38
2023-11-13T04:40:55.482Z,88.01
2023-11-13T04:43:22.173Z,87.91
2023-11-13T04:45:48.849Z,88.10
2023-11-13T04:48:15.415Z,88.53
2023-11-13T04:50:41.962Z,88.79
2023-11-13T04:53:08.521Z,88.51
2023-11-13T04:55:35.065Z,88.44
2023-11-13T04:58:03.209Z,88.13
2023-11-13T05:00:29.758Z,89.10
2023-11-13T05:02:56.360Z,89.28
2023-11-13T05:05:22.871Z,88.41
2023-11-13T05:07:49.368Z,89.35
2023-11-13T05:10:15.931Z,89.15
2023-11-13T05:12:42.470Z,89.03
2023-11-13T05:15:09.478Z,88.73
2023-11-13T05:17:39.696Z,89.17
2023-11-13T05:20:08.018Z,89.35
2023-11-13T05:22:35.135Z,89.17
2023-11-13T05:25:02.231Z,89.76
2023-11-13T05:27:28.828Z,89.65
2023-11-13T05:29:55.347Z,89.05
2023-11-13T05:32:21.971Z,89.44
2023-11-13T05:34:49.906Z,89.28
2023-11-13T05:37:16.639Z,89.57
2023-11-13T05:39:43.186Z,89.75
2023-11-13T05:42:09.760Z,88.76
2023-11-13T05:44:37.389Z,88.86
2023-11-13T05:47:05.084Z,88.28
2023-11-13T05:49:34.776Z,87.83
2023-11-13T05:52:01.593Z,87.95
2023-11-13T05:54:28.982Z,86.63
2023-11-13T05:56:56.057Z,86.26
2023-11-13T05:59:22.685Z,85.21
2023-11-13T06:01:50.403Z,84.63
2023-11-13T06:04:17.394Z,84.69
2023-11-13T06:06:47.036Z,84.74
2023-11-13T06:09:14.075Z,84.41
2023-11-13T06:11:40.649Z,83.79
2023-11-13T06:14:08.283Z,82.27
2023-11-13T06:16:35.282Z,82.00
2023-11-13T06:19:02.961Z,82.44
2023-11-13T06:21:29.601Z,83.51
2023-11-13T06:23:56.109Z,83.08
2023-11-13T06:26:22.677Z,83.67
2023-11-13T06:28:49.487Z,84.04
2023-11-13T06:31:17.934Z,83.51
2023-11-13T06:33:44.721Z,82.46
2023-11-13T06:36:11.410Z,82.49
2023-11-13T06:38:38.704Z,82.58
2023-11-13T06:41:05.832Z,83.30
2023-11-13T06:43:34.108Z,83.74
2023-11-13T06:46:01.248Z,83.66
2023-11-13T06:48:27.992Z,84.40
2023-11-13T06:50:54.449Z,83.57
2023-11-13T06:53:21.157Z,83.78
2023-11-13T06:55:49.174Z,83.44
2023-11-13T06:58:15.992Z,82.18
2023-11-13T07:00:42.693Z,82.09
2023-11-13T07:03:11.818Z,81.96
2023-11-13T07:05:39.007Z,81.62
2023-11-13T07:08:05.674Z,82.42
2023-11-13T07:10:35.633Z,82.34
2023-11-13T07:13:02.550Z,82.02
2023-11-13T07:15:31.171Z,82.78
2023-11-13T07:17:57.874Z,82.65
2023-11-13T07:20:24.367Z,82.25
2023-11-13T07:22:52.124Z,82.45
2023-11-13T07:25:18.880Z,82.31
2023-11-13T07:27:45.778Z,81.67
2023-11-13T07:30:12.593Z,82.32
2023-11-13T07:32:40.386Z,82.45
2023-11-13T07:35:09.151Z,82.68
2023-11-13T07:37:36.236Z,83.10
2023-11-13T07:40:02.945Z,83.92
2023-11-13T07:42:30.621Z,84.05
2023-11-13T07:44:59.645Z,84.57
2023-11-13T07:47:28.956Z,84.68
2023-11-13T07:49:59.515Z,85.21
2023-11-13T07:52:29.376Z,85.09
2023-11-13T07:54:57.212Z,84.32
2023-11-13T07:57:24.488Z,84.92
2023-11-13T07:59:52.528Z,84.96
2023-11-13T08:02:21.242Z,85.42
2023-11-13T08:04:48.091Z,86.07
2023-11-13T08:07:23.347Z,86.57
2023-11-13T08:09:52.661Z,85.91
2023-11-13T08:12:19.955Z,86.10
2023-11-13T08:14:47.859Z,86.12
2023-11-13T08:17:14.597Z,86.49
2023-11-13T08:19:42.883Z,87.04
2023-11-13T08:22:09.540Z,87.13
2023-11-13T08:24:36.531Z,87.80
2023-11-13T08:27:04.996Z,87.57
2023-11-13T08:29:34.070Z,87.61
2023-11-13T08:32:01.827Z,87.72
2023-11-13T08:34:28.769Z,88.19
2023-11-13T08:36:55.452Z,88.23
2023-11-13T08:39:23.866Z,88.52
2023-11-13T08:41:50.443Z,88.55
2023-11-13T08:44:17.002Z,88.31
2023-11-13T08:46:44.264Z,88.65
2023-11-13T08:49:10.846Z,89.12
2023-11-13T08:51:39.989Z,88.75
2023-11-13T08:54:06.639Z,89.21
2023-11-13T08:56:33.635Z,89.02
2023-11-13T08:59:01.598Z,88.93
2023-11-13T09:01:28.890Z,88.75
2023-11-13T09:04:01.630Z,88.45
2023-11-13T09:06:28.983Z,88.85
2023-11-13T09:08:55.554Z,89.60
2023-11-13T09:11:27.651Z,89.64
2023-11-13T09:13:54.163Z,90.08
2023-11-13T09:16:21.744Z,90.22
2023-11-13T09:18:50.156Z,90.10
2023-11-13T09:21:20.592Z,91.04
2023-11-13T09:23:47.758Z,91.13
2023-11-13T09:26:14.301Z,91.23
2023-11-13T09:28:40.943Z,91.23
2023-11-13T09:31:10.906Z,91.68
2023-11-13T09:33:40.778Z,91.60
2023-11-13T09:36:08.943Z,91.98
2023-11-13T09:38:35.734Z,91.78
2023-11-13T09:41:05.051Z,91.68
2023-11-13T09:43:38.087Z,92.46
2023-11-13T09:46:09.717Z,92.25
2023-11-13T09:48:45.078Z,92.27
2023-11-13T09:51:27.163Z,92.36
2023-11-13T09:53:58.095Z,92.40
2023-11-13T09:56:28.838Z,92.55
2023-11-13T09:58:58.009Z,92.57
2023-11-13T10:01:24.893Z,92.66
2023-11-13T10:03:51.924Z,92.44
2023-11-13T10:06:19.925Z,92.32
2023-11-13T10:08:48.332Z,91.84
2023-11-13T10:11:15.181Z,91.95
2023-11-13T10:13:42.466Z,91.71
2023-11-13T10:16:23.840Z,91.53
2023-11-13T10:18:53.516Z,91.46
2023-11-13T10:21:21.545Z,91.51
2023-11-13T10:23:50.472Z,91.68
2023-11-13T10:26:26.357Z,91.74
2023-11-13T10:28:52.879Z,91.59
2023-11-13T10:31:24.876Z,90.21
2023-11-13T10:34:04.045Z,90.43
2023-11-13T10:36:33.700Z,90.59
2023-11-13T10:39:00.834Z,90.33
2023-11-13T10:41:34.939Z,90.37
2023-11-13T10:44:20.701Z,90.78
2023-11-13T10:46:47.304Z,90.49
2023-11-13T10:49:14.758Z,90.29
2023-11-13T10:51:44.250Z,90.26
2023-11-13T10:54:12.685Z,89.57
2023-11-13T10:56:40.088Z,89.54
2023-11-13T10:59:09.897Z,89.41
2023-11-13T11:01:43.283Z,89.43
2023-11-13T11:04:11.714Z,89.74
2023-11-13T11:06:41.442Z,90.19
2023-11-13T11:09:09.052Z,90.31
2023-11-13T11:11:36.290Z,90.92
2023-11-13T11:14:12.455Z,91.04
2023-11-13T11:16:39.884Z,91.08
2023-11-13T11:19:31.213Z,91.10
2023-11-13T11:22:05.695Z,91.02
2023-11-13T11:24:58.674Z,91.48
2023-11-13T11:27:35.430Z,91.68
2023-11-13T11:30:02.262Z,91.59
2023-11-13T11:32:32.594Z,91.57
2023-11-13T11:35:05.539Z,91.28
2023-11-13T11:37:32.175Z,91.40
2023-11-13T11:40:05.150Z,91.74
2023-11-13T11:42:33.174Z,91.74
2023-11-13T11:45:03.097Z,91.95
2023-11-13T11:47:30.490Z,92.17
2023-11-13T11:50:01.063Z,91.60
2023-11-13T11:52:59.139Z,91.58
2023-11-13T11:55:27.165Z,92.25
2023-11-13T11:57:54.208Z,92.19
2023-11-13T12:00:22.900Z,91.76
2023-11-13T12:02:54.404Z,91.64
2023-11-13T12:05:21.578Z,91.69
2023-11-13T12:07:52.088Z,91.08
2023-11-13T12:10:22.310Z,90.99
2023-11-13T12:12:50.386Z,91.63
2023-11-13T12:15:17.076Z,91.85
2023-11-13T12:17:44.513Z,91.57
2023-11-13T12:20:20.324Z,91.65
2023-11-13T12:22:49.673Z,91.61
2023-11-13T12:25:17.015Z,92.58
2023-11-13T12:27:50.279Z,92.76
2023-11-13T12:30:25.212Z,92.62
2023-11-13T12:32:52.787Z,93.26
2023-11-13T12:35:21.783Z,93.80
2023-11-13T12:37:49.824Z,93.46
2023-11-13T12:40:22.020Z,93.51
2023-11-13T12:42:49.512Z,93.42
2023-11-13T12:45:18.593Z,92.71
2023-11-13T12:47:48.262Z,92.63
2023-11-13T12:50:20.443Z,92.80
2023-11-13T12:52:53.489Z,91.97
2023-11-13T12:55:21.401Z,91.70
2023-11-13T12:57:49.526Z,91.80
2023-11-13T13:00:17.213Z,91.76
2023-11-13T13:02:50.596Z,91.59
2023-11-13T13:05:29.098Z,91.23
2023-11-13T13:07:59.839Z,91.44
2023-11-13T13:10:26.841Z,91.51
2023-11-13T13:12:53.524Z,91.50
2023-11-13T13:15:22.376Z,91.33
2023-11-13T13:17:52.183Z,91.31
2023-11-13T13:20:20.180Z,91.17
2023-11-13T13:22:52.732Z,90.71
2023-11-13T13:25:26.219Z,90.74
2023-11-13T13:27:53.200Z,91.17
2023-11-13T13:30:23.040Z,91.22
2023-11-13T13:32:51.266Z,91.74
2023-11-13T13:35:19.922Z,91.37
2023-11-13T13:37:46.480Z,91.67
2023-11-13T13:40:14.288Z,91.64
2023-11-13T13:42:41.908Z,92.06
2023-11-13T13:45:17.767Z,91.81
2023-11-13T13:47:49.728Z,91.46
2023-11-13T13:50:20.807Z,91.68
2023-11-13T13:52:58.507Z,91.50
2023-11-13T13:55:29.434Z,92.11
2023-11-13T13:57:58.601Z,91.66
2023-11-13T14:03:01.099Z,91.73
2023-11-13T14:05:28.308Z,92.16
2023-11-13T14:07:54.925Z,91.72
2023-11-13T14:10:22.728Z,92.03
2023-11-13T14:12:51.362Z,91.88
2023-11-13T14:15:18.382Z,91.38
2023-11-13T14:17:45.303Z,91.96
2023-11-13T14:20:16.625Z,92.23
2023-11-13T14:22:49.595Z,91.80
2023-11-13T14:25:21.537Z,92.07
2023-11-13T14:27:55.042Z,91.79
2023-11-13T14:30:23.868Z,92.13
2023-11-13T14:32:53.903Z,92.73
2023-11-13T14:35:21.722Z,92.50
2023-11-13T14:37:54.600Z,92.77
2023-11-13T14:40:22.107Z,92.84
2023-11-13T14:42:48.645Z,93.07
2023-11-13T14:45:18.210Z,93.01
2023-11-13T14:47:48.813Z,93.08
2023-11-13T14:50:21.637Z,92.56
2023-11-13T14:52:53.164Z,92.66
2023-11-13T14:55:22.963Z,93.25
2023-11-13T14:57:51.893Z,93.43
2023-11-13T15:00:21.452Z,93.34
2023-11-13T15:02:50.693Z,93.46
2023-11-13T15:05:18.765Z,93.88
2023-11-13T15:07:46.337Z,93.25
2023-11-13T15:10:14.499Z,93.36
2023-11-13T15:12:41.786Z,93.35
2023-11-13T15:15:14.298Z,93.35
2023-11-13T15:17:42.592Z,93.75
2023-11-13T15:20:15.583Z,93.61
2023-11-13T15:25:15.233Z,93.87
2023-11-13T15:27:41.830Z,94.26
2023-11-13T15:30:12.549Z,94.32
2023-11-13T15:32:41.139Z,93.93
2023-11-13T15:35:09.219Z,94.62
2023-11-13T15:37:40.924Z,95.00
2023-11-13T15:40:09.612Z,94.91
2023-11-13T15:42:37.016Z,95.71
2023-11-13T15:45:03.999Z,95.52
2023-11-13T15:47:30.621Z,95.67
2023-11-13T15:49:58.724Z,95.70
2023-11-13T15:52:26.238Z,96.20
2023-11-13T15:54:52.984Z,95.65
2023-11-13T15:57:19.479Z,95.18
2023-11-13T15:59:45.940Z,94.61
2023-11-13T16:02:12.994Z,94.58
2023-11-13T16:04:39.763Z,94.48
2023-11-13T16:07:07.993Z,94.91
2023-11-13T16:09:35.017Z,94.65
2023-11-13T16:12:02.297Z,94.61
2023-11-13T16:14:33.346Z,94.26
2023-11-13T16:17:01.110Z,94.53
2023-11-13T16:19:29.383Z,94.74
2023-11-13T16:21:55.989Z,95.10
2023-11-13T16:24:23.182Z,94.58
2023-11-13T16:26:53.622Z,95.31
2023-11-13T16:29:23.022Z,94.92
2023-11-13T16:31:50.689Z,95.05
2023-11-13T16:34:19.291Z,95.02
2023-11-13T16:36:45.892Z,95.10
2023-11-13T16:39:14.037Z,95.14
2023-11-13T16:41:41.138Z,95.34
2023-11-13T16:44:07.662Z,95.26
2023-11-13T16:46:34.335Z,95.26
2023-11-13T16:49:06.503Z,94.97
2023-11-13T16:51:33.216Z,94.16
2023-11-13T16:53:59.798Z,93.40
2023-11-13T16:56:26.712Z,93.79
2023-11-13T16:58:53.856Z,93.11
2023-11-13T17:01:22.194Z,93.04
2023-11-13T17:03:48.827Z,92.65
2023-11-13T17:06:16.839Z,93.75
2023-11-13T17:08:43.628Z,94.27
2023-11-13T17:11:10.747Z,94.67
2023-11-13T17:13:38.219Z,95.41
2023-11-13T17:16:10.052Z,95.82
2023-11-13T17:18:36.957Z,96.49
2023-11-13T17:21:04.425Z,95.89
2023-11-13T17:23:30.942Z,95.89
2023-11-13T17:25:59.184Z,95.25
2023-11-13T17:28:27.293Z,95.09
2023-11-13T17:30:53.824Z,94.77
2023-11-13T17:33:23.701Z,94.32
2023-11-13T17:35:51.404Z,94.55
2023-11-13T17:38:18.157Z,94.59
2023-11-13T17:40:44.833Z,94.24
2023-11-13T17:43:11.909Z,94.27
2023-11-13T17:45:38.460Z,94.94
2023-11-13T17:48:05.989Z,94.27
2023-11-13T17:50:32.665Z,92.86
2023-11-13T17:52:59.150Z,91.64
2023-11-13T17:55:26.273Z,91.80
2023-11-13T17:57:52.916Z,93.08
2023-11-13T18:00:19.803Z,93.11
2023-11-13T18:02:46.746Z,91.94
2023-11-13T18:05:13.502Z,91.73
2023-11-13T18:07:41.518Z,92.36
2023-11-13T18:10:09.304Z,92.10
2023-11-13T18:12:35.881Z,91.82
2023-11-13T18:15:04.587Z,90.17
2023-11-13T18:17:32.267Z,89.58
2023-11-13T18:19:58.903Z,89.29
2023-11-13T18:22:25.495Z,89.96
2023-11-13T18:24:52.040Z,90.25
2023-11-13T18:27:18.601Z,91.00
2023-11-13T18:29:45.150Z,91.77
2023-11-13T18:32:12.028Z,91.21
2023-11-13T18:34:38.722Z,90.39
2023-11-13T18:37:05.348Z,90.27
2023-11-13T18:39:31.905Z,90.56
2023-11-13T18:41:58.456Z,89.49
2023-11-13T18:44:25.189Z,89.60
2023-11-13T18:46:51.825Z,88.40
2023-11-13T18:49:20.453Z,88.14
2023-11-13T18:51:47.563Z,87.27
2023-11-13T18:54:14.233Z,87.40
2023-11-13T18:56:40.815Z,87.13
2023-11-13T18:59:07.397Z,86.89
2023-11-13T19:01:34.551Z,87.19
2023-11-13T19:04:01.481Z,87.77
2023-11-13T19:06:28.690Z,88.04
2023-11-13T19:08:55.383Z,87.67
2023-11-13T19:11:23.085Z,87.86
2023-11-13T19:13:52.159Z,88.39
2023-11-13T19:16:19.152Z,88.57
2023-11-13T19:18:46.158Z,87.97
2023-11-13T19:21:12.734Z,89.18
2023-11-13T19:23:40.119Z,88.75
2023-11-13T19:26:07.762Z,89.43
2023-11-13T19:28:34.453Z,100.00
2023-11-13T19:31:01.010Z,100.00
2023-11-13T19:33:27.556Z,100.00
2023-11-13T19:35:54.352Z,89.40
2023-11-13T19:38:20.937Z,90.10
2023-11-13T19:40:47.443Z,90.11
2023-11-13T19:43:14.093Z,90.08
2023-11-13T19:45:40.696Z,100.00
2023-11-13T19:48:07.775Z,100.00
2023-11-13T19:50:35.628Z,100.00
2023-11-13T19:53:03.424Z,100.00
2023-11-13T19:55:30.151Z,89.53
2023-11-13T19:57:56.785Z,86.55
2023-11-13T20:00:24.735Z,85.83
2023-11-13T20:02:52.686Z,85.33
2023-11-13T20:05:19.337Z,85.71
2023-11-13T20:07:46.274Z,85.58
2023-11-13T20:10:13.354Z,86.21
2023-11-13T20:12:40.204Z,85.98
2023-11-13T20:15:08.149Z,86.06
2023-11-13T20:17:35.080Z,85.40
2023-11-13T20:20:01.969Z,85.66
2023-11-13T20:22:28.578Z,85.46
2023-11-13T20:24:55.088Z,84.98
2023-11-13T20:27:22.103Z,84.45
2023-11-13T20:29:55.194Z,84.94
2023-11-13T20:32:27.259Z,85.02
2023-11-13T20:34:53.881Z,85.35
2023-11-13T20:37:20.984Z,84.92
2023-11-13T20:39:47.554Z,84.72
2023-11-13T20:42:15.771Z,84.89
2023-11-13T20:44:42.385Z,84.90
2023-11-13T20:47:08.998Z,84.10
2023-11-13T20:49:36.382Z,83.46
2023-11-13T20:52:04.449Z,83.19
2023-11-13T20:54:30.918Z,82.63
2023-11-13T20:56:57.588Z,82.28
2023-11-13T20:59:24.738Z,80.63
2023-11-13T21:01:51.318Z,80.85
2023-11-13T21:04:19.265Z,80.21
2023-11-13T21:06:46.341Z,80.25
2023-11-13T21:09:13.706Z,79.58
2023-11-13T21:11:40.331Z,79.48
2023-11-13T21:14:06.886Z,79.54
2023-11-13T21:16:33.522Z,78.88
2023-11-13T21:19:00.067Z,77.48
2023-11-13T21:21:28.341Z,77.87
2023-11-13T21:23:58.306Z,76.79
2023-11-13T21:26:24.809Z,77.53
2023-11-13T21:28:51.410Z,76.80
2023-11-13T21:31:17.901Z,77.58
2023-11-13T21:33:44.595Z,76.49
2023-11-13T21:36:11.414Z,75.78
2023-11-13T21:38:38.921Z,76.40
2023-11-13T21:41:07.676Z,76.30
2023-11-13T21:43:35.866Z,76.34
2023-11-13T21:46:05.292Z,76.58
2023-11-13T21:48:31.927Z,76.04
2023-11-13T21:50:58.515Z,76.23
2023-11-13T21:53:26.782Z,75.93
2023-11-13T21:55:55.057Z,75.90
2023-11-13T21:58:22.037Z,75.96
2023-11-13T22:00:48.716Z,76.01
2023-11-13T22:03:15.472Z,75.17
2023-11-13T22:05:42.042Z,75.51
2023-11-13T22:08:09.312Z,75.48
2023-11-13T22:10:37.620Z,75.73
2023-11-13T22:13:05.139Z,75.71
2023-11-13T22:15:31.661Z,75.74
2023-11-13T22:17:58.220Z,75.70
2023-11-13T22:20:28.779Z,76.36
2023-11-13T22:22:56.763Z,75.89
2023-11-13T22:25:23.459Z,76.25
2023-11-13T22:27:52.025Z,76.48
2023-11-13T22:30:18.590Z,77.41
2023-11-13T22:32:45.390Z,77.26
2023-11-13T22:35:12.021Z,76.95
2023-11-13T22:37:38.704Z,77.69
2023-11-13T22:40:06.682Z,77.10
2023-11-13T22:42:34.244Z,77.68
2023-11-13T22:45:01.402Z,77.76
2023-11-13T22:47:27.985Z,77.30
2023-11-13T22:49:54.593Z,78.02
2023-11-13T22:52:22.323Z,77.94
2023-11-13T22:54:52.224Z,78.44
2023-11-13T22:57:19.759Z,77.78
2023-11-13T22:59:47.925Z,78.47
2023-11-13T23:02:15.064Z,78.36
2023-11-13T23:04:41.785Z,78.29
2023-11-13T23:07:13.227Z,78.43
2023-11-13T23:09:39.995Z,78.24
2023-11-13T23:12:06.636Z,78.08
2023-11-13T23:14:33.104Z,78.44
2023-11-13T23:17:00.861Z,78.50
2023-11-13T23:19:27.698Z,78.49
2023-11-13T23:22:01.895Z,78.32
2023-11-13T23:24:31.191Z,78.55
2023-11-13T23:26:58.029Z,78.02
2023-11-13T23:29:24.550Z,78.71
2023-11-13T23:31:51.501Z,77.98
2023-11-13T23:34:18.555Z,78.82
2023-11-13T23:36:45.202Z,78.59
2023-11-13T23:39:11.822Z,78.91
2023-11-13T23:41:38.318Z,78.93
2023-11-13T23:44:05.336Z,79.02
2023-11-13T23:46:31.973Z,79.12
2023-11-13T23:48:58.554Z,79.80
2023-11-13T23:51:25.806Z,79.91
2023-11-13T23:53:53.679Z,80.36
2023-11-13T23:56:20.507Z,80.63
2023-11-13T23:58:47.351Z,81.14
